Time;durP1;ratioP1;P1;durP2;ratioP2;P2;SDS_P1;SDS_P2;PMS_P1;PMS_P2;Temp;Humidity;BMP_temperature;BMP_pressure;BME280_temperature;BME280_humidity;BME280_pressure;Samples;Min_cycle;Max_cycle;Signal;HPM_P1;HPM_P2
2022/05/01 00:00:16;;;;;;;34.43;29.10;;;11.80;99.90;;;;;;6101522;23;20439;-88
2022/05/01 00:02:43;;;;;;;36.07;30.50;;;11.80;99.90;;;;;;6101426;23;20465;-88
2022/05/01 00:05:10;;;;;;;34.53;29.63;;;11.80;99.90;;;;;;6098793;23;20411;-89
2022/05/01 00:07:37;;;;;;;34.17;30.30;;;11.80;99.90;;;;;;6099037;23;20415;-88
2022/05/01 00:10:06;;;;;;;35.53;28.63;;;11.70;99.90;;;;;;6101229;23;20413;-88
2022/05/01 00:12:34;;;;;;;35.57;31.77;;;11.80;99.90;;;;;;6100393;23;20409;-88
2022/05/01 00:15:00;;;;;;;40.07;30.70;;;11.70;99.90;;;;;;6110745;23;20934;-89
2022/05/01 00:17:27;;;;;;;37.27;30.80;;;11.80;99.90;;;;;;6099379;23;20449;-89
2022/05/01 00:19:55;;;;;;;34.83;30.63;;;11.80;99.90;;;;;;6096950;23;20424;-89
2022/05/01 00:22:22;;;;;;;36.77;30.40;;;11.80;99.90;;;;;;6110461;23;20413;-89
2022/05/01 00:24:49;;;;;;;37.33;31.57;;;11.80;99.90;;;;;;6121299;23;20412;-89
2022/05/01 00:27:17;;;;;;;39.97;30.87;;;11.70;99.90;;;;;;6102735;23;20413;-88
2022/05/01 00:29:44;;;;;;;34.13;30.47;;;11.70;99.90;;;;;;6122158;23;20413;-89
2022/05/01 00:32:11;;;;;;;35.80;31.30;;;11.70;99.90;;;;;;6124176;23;20403;-89
2022/05/01 00:37:22;;;;;;;38.80;32.43;;;11.80;99.90;;;;;;6108894;23;20384;-89
2022/05/01 00:39:49;;;;;;;40.57;31.77;;;11.80;99.90;;;;;;6106589;23;20439;-89
2022/05/01 00:42:18;;;;;;;48.10;32.73;;;11.80;99.90;;;;;;6110440;23;20412;-89
2022/05/01 00:44:46;;;;;;;37.77;32.30;;;11.70;99.90;;;;;;6111630;23;20432;-89
2022/05/01 00:47:13;;;;;;;39.00;31.80;;;11.80;99.90;;;;;;6099153;23;20412;-88
2022/05/01 00:49:39;;;;;;;41.90;32.40;;;11.80;99.90;;;;;;6097390;23;20431;-88
2022/05/01 00:52:09;;;;;;;40.23;32.77;;;11.80;99.90;;;;;;6098630;23;20415;-88
2022/05/01 00:54:39;;;;;;;35.90;32.00;;;11.70;99.90;;;;;;6121087;23;20421;-89
2022/05/01 00:57:07;;;;;;;38.50;31.67;;;11.80;99.90;;;;;;6123836;23;20407;-88
2022/05/01 00:59:36;;;;;;;40.47;31.00;;;11.70;99.90;;;;;;6113850;23;20444;-88
2022/05/01 01:02:05;;;;;;;36.67;30.60;;;11.70;99.90;;;;;;6099005;23;20422;-88
2022/05/01 01:04:31;;;;;;;42.83;33.77;;;11.70;99.90;;;;;;6097699;23;20892;-88
2022/05/01 01:06:58;;;;;;;38.17;31.47;;;11.70;99.90;;;;;;6098027;23;20397;-87
2022/05/01 01:09:25;;;;;;;40.00;34.77;;;11.70;99.90;;;;;;6098384;23;20431;-88
2022/05/01 01:12:53;;;;;;;41.37;33.73;;;11.70;99.90;;;;;;6107189;23;20481;-88
2022/05/01 01:14:42;;;;;;;37.87;31.50;;;11.70;99.90;;;;;;6116581;23;20416;-88
2022/05/01 01:17:09;;;;;;;36.83;31.47;;;11.80;99.90;;;;;;6102147;23;20400;-88
2022/05/01 01:19:36;;;;;;;38.50;32.77;;;11.70;99.90;;;;;;6097845;23;20455;-89
2022/05/01 01:22:06;;;;;;;37.60;32.63;;;11.70;99.90;;;;;;6096755;23;20475;-89
2022/05/01 01:24:36;;;;;;;42.53;32.20;;;11.70;99.90;;;;;;6096216;23;20879;-89
2022/05/01 01:27:03;;;;;;;41.77;32.97;;;11.70;99.90;;;;;;6101234;23;20409;-88
2022/05/01 01:32:15;;;;;;;41.37;31.23;;;11.60;99.90;;;;;;6100278;23;20424;-88
2022/05/01 01:34:43;;;;;;;38.77;31.17;;;11.60;99.90;;;;;;6102918;23;20412;-88
2022/05/01 01:37:14;;;;;;;36.20;31.10;;;11.60;99.90;;;;;;6100747;23;20471;-88
2022/05/01 01:39:41;;;;;;;41.27;32.07;;;11.60;99.90;;;;;;6112736;23;20436;-89
2022/05/01 01:42:12;;;;;;;42.97;33.10;;;11.60;99.90;;;;;;6120771;23;20444;-90
2022/05/01 01:44:39;;;;;;;38.30;33.83;;;11.60;99.90;;;;;;6111034;23;20393;-89
2022/05/01 01:47:06;;;;;;;38.70;31.67;;;11.60;99.90;;;;;;6110176;23;20405;-89
2022/05/01 01:49:34;;;;;;;37.17;30.70;;;11.50;99.90;;;;;;6114364;23;20439;-89
2022/05/01 01:52:00;;;;;;;37.07;31.00;;;11.50;99.90;;;;;;6112226;23;20409;-90
2022/05/01 01:54:29;;;;;;;38.27;30.40;;;11.60;99.90;;;;;;6097992;23;20476;-89
2022/05/01 01:56:55;;;;;;;37.43;30.90;;;11.50;99.90;;;;;;6097185;23;20994;-90
2022/05/01 01:59:23;;;;;;;41.30;31.60;;;11.50;99.90;;;;;;6107722;23;20428;-90
2022/05/01 02:01:50;;;;;;;35.43;30.90;;;11.50;99.90;;;;;;6121485;23;20413;-89
2022/05/01 02:04:17;;;;;;;37.60;31.70;;;11.60;99.90;;;;;;6117401;23;20401;-88
2022/05/01 02:06:44;;;;;;;35.20;28.77;;;11.60;99.90;;;;;;6109644;23;20405;-89
2022/05/01 02:09:12;;;;;;;37.47;30.23;;;11.60;99.90;;;;;;6123285;23;20420;-89
2022/05/01 02:11:41;;;;;;;37.03;31.17;;;11.60;99.90;;;;;;6115202;23;20419;-89
2022/05/01 02:14:09;;;;;;;39.43;29.87;;;11.60;99.90;;;;;;6112998;23;20530;-90
2022/05/01 02:16:35;;;;;;;34.20;30.50;;;11.60;99.90;;;;;;6104373;23;20444;-89
2022/05/01 02:19:02;;;;;;;37.37;30.80;;;11.60;99.90;;;;;;6100102;23;20465;-90
2022/05/01 02:21:35;;;;;;;44.20;29.73;;;11.70;99.90;;;;;;6099719;23;20408;-87
2022/05/01 02:24:03;;;;;;;38.80;29.43;;;11.70;99.90;;;;;;6098924;23;20407;-89
2022/05/01 02:26:30;;;;;;;36.00;28.67;;;11.70;99.90;;;;;;6097295;23;20429;-88
2022/05/01 02:28:59;;;;;;;37.33;31.10;;;11.70;99.90;;;;;;6097556;23;20429;-88
2022/05/01 02:31:26;;;;;;;41.27;31.70;;;11.70;99.90;;;;;;6121780;23;20417;-88
2022/05/01 02:33:53;;;;;;;38.27;29.90;;;11.70;99.90;;;;;;6107546;23;20422;-88
2022/05/01 02:36:20;;;;;;;36.03;29.27;;;11.60;99.90;;;;;;6099372;23;20413;-88
2022/05/01 02:38:47;;;;;;;36.37;29.37;;;11.70;99.90;;;;;;6100221;23;20436;-88
2022/05/01 02:41:14;;;;;;;34.07;29.07;;;11.60;99.90;;;;;;6106551;23;20472;-89
2022/05/01 02:43:40;;;;;;;37.50;28.87;;;11.50;99.90;;;;;;6098094;23;20413;-88
2022/05/01 02:46:09;;;;;;;37.37;28.87;;;11.40;99.90;;;;;;6097869;23;20412;-88
2022/05/01 02:48:35;;;;;;;38.67;30.07;;;11.40;99.90;;;;;;6106495;23;20416;-88
2022/05/01 02:51:04;;;;;;;35.83;28.70;;;11.40;99.90;;;;;;6121060;23;20405;-87
2022/05/01 02:53:31;;;;;;;36.27;30.10;;;11.40;99.90;;;;;;6123934;23;20526;-88
2022/05/01 02:56:00;;;;;;;36.30;29.33;;;11.40;99.90;;;;;;6118223;23;20475;-89
2022/05/01 02:58:27;;;;;;;36.50;28.60;;;11.30;99.90;;;;;;6119467;23;20456;-88
2022/05/01 03:00:54;;;;;;;34.67;27.17;;;11.30;99.90;;;;;;6111796;23;20488;-89
2022/05/01 03:03:23;;;;;;;43.20;32.30;;;11.30;99.90;;;;;;6105838;23;20413;-89
2022/05/01 03:05:51;;;;;;;37.63;29.50;;;11.30;99.90;;;;;;6106147;23;20419;-89
2022/05/01 03:08:18;;;;;;;46.07;28.63;;;11.40;99.90;;;;;;6123092;23;20445;-89
2022/05/01 03:10:45;;;;;;;36.40;29.13;;;11.40;99.90;;;;;;6108673;23;20416;-88
2022/05/01 03:13:11;;;;;;;36.53;30.27;;;11.40;99.90;;;;;;6098522;23;20419;-89
2022/05/01 03:15:38;;;;;;;39.57;31.47;;;11.40;99.90;;;;;;6108732;23;20397;-89
2022/05/01 03:23:36;;;;;;;42.37;33.07;;;11.30;99.90;;;;;;6097404;23;20421;-88
2022/05/01 03:26:02;;;;;;;39.30;31.00;;;11.30;99.90;;;;;;6118082;23;20409;-88
2022/05/01 03:28:29;;;;;;;41.63;31.97;;;11.30;99.90;;;;;;6122717;23;20464;-89
2022/05/01 03:30:57;;;;;;;39.27;32.47;;;11.30;99.90;;;;;;6123008;23;20397;-89
2022/05/01 03:33:24;;;;;;;38.97;29.67;;;11.30;99.90;;;;;;6123759;23;20494;-89
2022/05/01 03:35:55;;;;;;;40.23;32.50;;;11.30;99.90;;;;;;6107840;23;20464;-89
2022/05/01 03:38:21;;;;;;;41.50;31.30;;;11.30;99.90;;;;;;6108129;23;20455;-89
2022/05/01 03:40:48;;;;;;;40.63;32.27;;;11.30;99.90;;;;;;6098039;23;20412;-89
2022/05/01 03:43:16;;;;;;;40.60;33.73;;;11.30;99.90;;;;;;6107605;23;20423;-89
2022/05/01 03:45:43;;;;;;;40.37;33.20;;;11.30;99.90;;;;;;6107628;23;20416;-88
2022/05/01 03:48:11;;;;;;;46.53;31.80;;;11.30;99.90;;;;;;6096292;23;20432;-88
2022/05/01 03:50:38;;;;;;;43.50;33.90;;;11.30;99.90;;;;;;6097288;23;20519;-88
2022/05/01 03:53:06;;;;;;;49.50;34.17;;;11.30;99.90;;;;;;6096039;23;20417;-88
2022/05/01 03:55:36;;;;;;;41.50;32.60;;;11.20;99.90;;;;;;6096671;23;20404;-88
2022/05/01 03:58:03;;;;;;;44.73;33.23;;;11.20;99.90;;;;;;6096311;23;20491;-89
2022/05/01 04:00:29;;;;;;;45.03;32.63;;;11.20;99.90;;;;;;6096238;23;20448;-88
2022/05/01 04:02:56;;;;;;;41.40;32.13;;;11.30;99.90;;;;;;6114583;23;20387;-89
2022/05/01 04:05:23;;;;;;;45.57;32.90;;;11.20;99.90;;;;;;6116698;23;20414;-88
2022/05/01 04:07:49;;;;;;;39.03;31.47;;;11.20;99.90;;;;;;6096345;23;20431;-89
2022/05/01 04:10:17;;;;;;;40.80;33.23;;;11.20;99.90;;;;;;6095863;23;20405;-88
2022/05/01 04:12:45;;;;;;;42.97;33.77;;;11.20;99.90;;;;;;6097253;23;20420;-89
2022/05/01 04:15:14;;;;;;;40.60;32.40;;;11.20;99.90;;;;;;6095647;23;20406;-89
2022/05/01 04:17:42;;;;;;;37.47;32.53;;;11.20;99.90;;;;;;6096399;23;20419;-89
2022/05/01 04:20:12;;;;;;;37.90;31.43;;;11.10;99.90;;;;;;6117947;23;20435;-88
2022/05/01 04:22:40;;;;;;;41.90;33.60;;;11.20;99.90;;;;;;6102752;23;20401;-89
2022/05/01 04:25:14;;;;;;;37.50;30.17;;;11.20;99.90;;;;;;6095848;23;20402;-89
2022/05/01 04:27:42;;;;;;;37.93;30.80;;;11.20;99.90;;;;;;6095904;23;20563;-88
2022/05/01 04:30:10;;;;;;;40.33;32.40;;;11.20;99.90;;;;;;6096158;23;20411;-88
2022/05/01 04:32:48;;;;;;;42.73;32.00;;;11.30;99.90;;;;;;6114426;23;20411;-89
2022/05/01 04:35:14;;;;;;;36.70;32.07;;;11.20;99.90;;;;;;6113614;23;20501;-89
2022/05/01 04:37:41;;;;;;;34.67;30.90;;;11.30;99.90;;;;;;6116016;23;20396;-88
2022/05/01 04:40:09;;;;;;;40.83;34.30;;;11.20;99.90;;;;;;6117273;23;20505;-88
2022/05/01 04:42:36;;;;;;;41.37;34.87;;;11.20;99.90;;;;;;6106639;23;20742;-89
2022/05/01 04:45:05;;;;;;;38.47;30.60;;;11.30;99.90;;;;;;6118410;23;20431;-88
2022/05/01 04:47:31;;;;;;;36.20;30.80;;;11.30;99.90;;;;;;6123451;23;20421;-88
2022/05/01 04:49:58;;;;;;;37.80;30.60;;;11.30;99.90;;;;;;6123319;23;20401;-89
2022/05/01 04:52:25;;;;;;;37.23;32.03;;;11.30;99.90;;;;;;6120462;23;20413;-88
2022/05/01 04:54:52;;;;;;;42.47;31.90;;;11.40;99.90;;;;;;6119880;23;20417;-88
2022/05/01 04:57:19;;;;;;;35.90;31.47;;;11.40;99.90;;;;;;6114085;23;20413;-88
2022/05/01 04:59:46;;;;;;;35.37;28.93;;;11.40;99.90;;;;;;6124153;23;20451;-88
2022/05/01 05:02:14;;;;;;;40.50;31.80;;;11.30;99.90;;;;;;6124322;23;20387;-88
2022/05/01 05:04:41;;;;;;;34.67;30.80;;;11.50;99.90;;;;;;6119526;23;20431;-88
2022/05/01 05:07:07;;;;;;;35.67;30.07;;;11.40;99.90;;;;;;6119269;23;20405;-88
2022/05/01 05:12:18;;;;;;;34.03;28.07;;;11.50;99.90;;;;;;6124929;23;20395;-88
2022/05/01 05:14:47;;;;;;;35.70;28.90;;;11.40;99.90;;;;;;6122720;23;20416;-88
2022/05/01 05:17:18;;;;;;;32.00;28.53;;;11.50;99.90;;;;;;6116410;23;20479;-88
2022/05/01 05:19:44;;;;;;;38.30;30.33;;;11.50;99.90;;;;;;6100514;23;20455;-88
2022/05/01 05:22:11;;;;;;;38.40;31.70;;;11.50;99.90;;;;;;6102689;23;20748;-88
2022/05/01 05:24:38;;;;;;;35.90;28.90;;;11.60;99.90;;;;;;6099506;23;20404;-88
2022/05/01 05:27:05;;;;;;;40.20;29.20;;;11.50;99.90;;;;;;6098019;23;20416;-87
2022/05/01 05:29:32;;;;;;;30.77;27.43;;;11.60;99.90;;;;;;6098334;23;20496;-88
2022/05/01 05:31:59;;;;;;;35.63;29.10;;;11.60;99.90;;;;;;6098200;23;20451;-88
2022/05/01 05:34:27;;;;;;;33.47;28.70;;;11.50;99.90;;;;;;6097772;23;20424;-88
2022/05/01 05:36:54;;;;;;;34.10;30.33;;;11.50;99.90;;;;;;6098989;23;20410;-88
2022/05/01 05:39:20;;;;;;;38.07;32.27;;;11.60;99.90;;;;;;6119991;23;20495;-88
2022/05/01 05:41:47;;;;;;;37.03;31.07;;;11.60;99.90;;;;;;6119411;23;20415;-88
2022/05/01 05:44:14;;;;;;;36.50;30.33;;;11.60;99.90;;;;;;6106533;23;20409;-88
2022/05/01 05:46:41;;;;;;;36.20;29.30;;;11.60;99.90;;;;;;6103786;23;20412;-87
2022/05/01 05:49:08;;;;;;;42.93;31.40;;;11.60;99.90;;;;;;6102891;23;20432;-89
2022/05/01 05:51:36;;;;;;;45.23;31.80;;;11.60;99.90;;;;;;6102744;23;20418;-88
2022/05/01 05:54:03;;;;;;;39.73;30.87;;;11.50;99.90;;;;;;6102553;23;20408;-88
2022/05/01 05:56:30;;;;;;;35.53;30.07;;;11.60;99.90;;;;;;6103944;23;20399;-89
2022/05/01 05:58:57;;;;;;;38.17;30.20;;;11.60;99.90;;;;;;6111786;23;20432;-88
2022/05/01 06:01:23;;;;;;;32.57;27.37;;;11.60;99.90;;;;;;6120779;23;20397;-89
2022/05/01 06:03:50;;;;;;;34.97;29.47;;;11.60;99.90;;;;;;6116797;23;20440;-88
2022/05/01 06:06:18;;;;;;;37.53;30.03;;;11.70;99.90;;;;;;6106276;23;20439;-87
2022/05/01 06:08:46;;;;;;;34.33;28.80;;;11.70;99.90;;;;;;6115024;23;20428;-88
2022/05/01 06:11:15;;;;;;;37.03;29.30;;;11.80;99.90;;;;;;6109798;23;20461;-89
2022/05/01 06:13:41;;;;;;;35.60;29.63;;;11.80;99.90;;;;;;6101184;23;20418;-89
2022/05/01 06:16:08;;;;;;;34.07;29.30;;;11.90;99.90;;;;;;6100142;23;20416;-89
2022/05/01 06:18:35;;;;;;;31.93;28.60;;;12.00;99.90;;;;;;6101408;23;20445;-89
2022/05/01 06:21:02;;;;;;;34.23;29.37;;;12.10;99.90;;;;;;6104034;23;20452;-89
2022/05/01 06:23:29;;;;;;;33.43;29.07;;;12.10;99.90;;;;;;6116149;23;20464;-87
2022/05/01 06:25:57;;;;;;;33.60;28.43;;;12.20;99.90;;;;;;6111215;23;20423;-88
2022/05/01 06:28:24;;;;;;;32.37;28.83;;;12.30;99.90;;;;;;6122037;23;20428;-89
2022/05/01 06:30:52;;;;;;;38.20;30.77;;;12.40;99.90;;;;;;6107735;23;20419;-88
2022/05/01 06:33:21;;;;;;;31.97;28.53;;;12.50;99.90;;;;;;6103031;23;20417;-88
2022/05/01 06:35:50;;;;;;;33.20;28.50;;;12.60;99.90;;;;;;6103854;23;20900;-88
2022/05/01 06:38:17;;;;;;;33.17;28.47;;;12.70;99.90;;;;;;6104655;23;20500;-89
2022/05/01 06:40:44;;;;;;;33.23;27.07;;;12.90;99.90;;;;;;6101000;23;20446;-89
2022/05/01 06:43:12;;;;;;;34.53;28.30;;;13.00;99.90;;;;;;6115062;23;20396;-88
2022/05/01 06:45:40;;;;;;;29.90;26.27;;;13.00;99.90;;;;;;6122815;23;20407;-89
2022/05/01 06:48:08;;;;;;;35.27;27.80;;;13.10;99.90;;;;;;6116045;23;20535;-89
2022/05/01 06:50:35;;;;;;;31.20;27.83;;;13.20;99.90;;;;;;6107685;23;20410;-89
2022/05/01 06:53:02;;;;;;;28.80;25.70;;;13.30;99.90;;;;;;6108296;23;21016;-88
2022/05/01 06:55:29;;;;;;;28.27;24.40;;;13.40;99.90;;;;;;6102332;23;20414;-88
2022/05/01 06:57:56;;;;;;;33.43;29.73;;;13.30;99.90;;;;;;6112619;23;20425;-88
2022/05/01 07:00:24;;;;;;;30.63;26.40;;;13.40;99.90;;;;;;6122252;23;20490;-89
2022/05/01 07:02:53;;;;;;;29.10;25.97;;;13.50;99.90;;;;;;6112842;23;20713;-89
2022/05/01 07:05:28;;;;;;;30.40;27.20;;;13.60;99.90;;;;;;6109353;23;20398;-88
2022/05/01 07:07:55;;;;;;;30.30;26.90;;;13.80;99.90;;;;;;6101976;23;20419;-89
2022/05/01 07:10:23;;;;;;;29.10;25.83;;;13.80;99.90;;;;;;6099507;23;20407;-89
2022/05/01 07:12:50;;;;;;;30.67;26.33;;;13.80;99.90;;;;;;6099474;23;20406;-89
2022/05/01 07:15:18;;;;;;;30.67;26.70;;;13.80;99.90;;;;;;6101161;23;20418;-88
2022/05/01 07:17:46;;;;;;;29.03;25.93;;;13.80;99.90;;;;;;6100332;23;20743;-88
2022/05/01 07:20:13;;;;;;;29.57;26.10;;;13.70;99.90;;;;;;6113751;23;20434;-88
2022/05/01 07:22:40;;;;;;;28.10;25.20;;;13.80;99.90;;;;;;6121123;23;20427;-88
2022/05/01 07:25:08;;;;;;;28.43;25.37;;;13.90;99.90;;;;;;6113092;23;20414;-88
2022/05/01 07:27:35;;;;;;;29.30;25.10;;;14.00;99.90;;;;;;6103855;23;20436;-87
2022/05/01 07:30:01;;;;;;;28.10;25.20;;;13.90;99.90;;;;;;6112522;23;20953;-85
2022/05/01 07:32:28;;;;;;;27.30;24.27;;;14.00;99.90;;;;;;6098172;23;20738;-84
2022/05/01 07:34:57;;;;;;;27.97;24.93;;;14.10;99.90;;;;;;6095731;23;20921;-84
2022/05/01 07:37:26;;;;;;;28.60;25.37;;;14.10;99.90;;;;;;6097134;23;20450;-87
2022/05/01 07:39:54;;;;;;;26.60;24.00;;;14.10;99.90;;;;;;6114006;23;20455;-87
2022/05/01 07:42:23;;;;;;;27.73;24.73;;;14.10;99.90;;;;;;6117086;23;20427;-88
2022/05/01 07:44:50;;;;;;;29.57;25.20;;;14.00;99.90;;;;;;6097298;23;20392;-88
2022/05/01 07:47:17;;;;;;;29.50;26.17;;;14.10;99.90;;;;;;6095837;23;20855;-86
2022/05/01 07:49:44;;;;;;;27.70;24.60;;;14.20;99.90;;;;;;6095242;23;20508;-84
2022/05/01 07:52:12;;;;;;;28.87;25.97;;;14.20;99.90;;;;;;6095126;23;20418;-84
2022/05/01 07:54:38;;;;;;;29.83;24.33;;;14.40;99.90;;;;;;6095251;23;20443;-84
2022/05/01 07:57:07;;;;;;;26.93;24.20;;;14.50;99.80;;;;;;6095068;23;20419;-85
2022/05/01 07:59:33;;;;;;;28.07;25.17;;;14.70;99.80;;;;;;6109040;23;20467;-85
2022/05/01 08:02:00;;;;;;;26.43;23.73;;;14.70;99.60;;;;;;6102856;23;20731;-85
2022/05/01 08:04:29;;;;;;;26.17;23.70;;;14.90;99.30;;;;;;6095704;23;20412;-85
2022/05/01 08:06:56;;;;;;;25.67;23.07;;;15.00;98.40;;;;;;6095673;23;20391;-84
2022/05/01 08:09:24;;;;;;;26.83;24.00;;;15.00;98.40;;;;;;6095887;23;20938;-85
2022/05/01 08:11:51;;;;;;;24.53;22.03;;;15.10;98.40;;;;;;6097850;23;20404;-82
2022/05/01 08:14:21;;;;;;;25.53;22.80;;;15.20;97.50;;;;;;6096341;23;20412;-85
2022/05/01 08:16:48;;;;;;;24.33;21.93;;;15.20;97.30;;;;;;6095076;23;20416;-85
2022/05/01 08:22:00;;;;;;;25.67;23.00;;;15.20;97.00;;;;;;6095528;23;20720;-83
2022/05/01 08:24:28;;;;;;;25.87;23.07;;;15.20;97.10;;;;;;6096209;23;20419;-85
2022/05/01 08:26:54;;;;;;;24.73;22.17;;;15.30;96.50;;;;;;6107361;23;20413;-85
2022/05/01 08:29:21;;;;;;;25.73;23.03;;;15.10;96.60;;;;;;6105149;23;20424;-85
2022/05/01 08:31:48;;;;;;;25.40;22.80;;;15.30;96.50;;;;;;6100807;23;20463;-85
2022/05/01 08:34:16;;;;;;;24.87;22.07;;;15.50;96.70;;;;;;6096536;23;20412;-86
2022/05/01 08:36:45;;;;;;;23.23;20.87;;;15.60;96.00;;;;;;6099498;23;20408;-87
2022/05/01 08:39:12;;;;;;;21.27;18.97;;;15.90;95.60;;;;;;6098092;23;20429;-84
2022/05/01 08:41:40;;;;;;;21.90;19.90;;;16.50;93.90;;;;;;6121818;23;20440;-86
2022/05/01 08:44:13;;;;;;;21.97;19.97;;;17.20;93.00;;;;;;6104794;23;20413;-85
2022/05/01 08:46:54;;;;;;;20.30;18.17;;;17.70;91.80;;;;;;6115118;23;20382;-85
2022/05/01 08:49:22;;;;;;;19.80;17.80;;;18.00;90.40;;;;;;6117352;23;20460;-85
2022/05/01 08:51:51;;;;;;;21.27;19.27;;;18.00;88.90;;;;;;6112066;23;20424;-83
2022/05/01 08:54:18;;;;;;;20.23;18.23;;;17.40;89.50;;;;;;6107418;23;20430;-85
2022/05/01 08:56:48;;;;;;;22.63;20.40;;;17.40;90.10;;;;;;6097320;23;20523;-85
2022/05/01 08:59:16;;;;;;;23.60;21.40;;;16.90;90.00;;;;;;6095477;23;20428;-86
2022/05/01 09:01:44;;;;;;;21.67;19.47;;;16.40;90.80;;;;;;6095658;23;20782;-85
2022/05/01 09:04:13;;;;;;;24.20;21.87;;;16.20;91.50;;;;;;6107812;23;20436;-85
2022/05/01 09:06:41;;;;;;;24.70;22.30;;;15.80;92.00;;;;;;6109940;23;20476;-85
2022/05/01 09:09:08;;;;;;;23.33;21.03;;;15.70;92.60;;;;;;6098783;23;20445;-84
2022/05/01 09:14:23;;;;;;;22.57;20.27;;;14.90;93.50;;;;;;6096803;23;20416;-84
2022/05/01 09:17:13;;;;;;;23.93;21.47;;;14.60;94.60;;;;;;6095161;23;20526;-84
2022/05/01 09:19:39;;;;;;;24.10;21.50;;;14.60;94.50;;;;;;6094398;23;20443;-85
2022/05/01 09:22:06;;;;;;;25.17;22.60;;;14.50;94.60;;;;;;6094768;23;20665;-85
2022/05/01 09:24:33;;;;;;;24.73;22.17;;;14.50;94.80;;;;;;6095283;23;20783;-85
2022/05/01 09:27:01;;;;;;;23.10;20.70;;;14.80;95.50;;;;;;6095373;23;20440;-85
2022/05/01 09:29:34;;;;;;;22.90;20.43;;;15.40;95.20;;;;;;6095366;23;20452;-85
2022/05/01 09:32:03;;;;;;;22.97;20.47;;;15.80;93.60;;;;;;6100527;23;20726;-86
2022/05/01 09:34:32;;;;;;;20.90;18.20;;;16.00;93.00;;;;;;6121621;23;20467;-85
2022/05/01 09:37:00;;;;;;;21.10;19.00;;;16.30;92.90;;;;;;6112198;23;20401;-86
2022/05/01 09:39:27;;;;;;;20.03;18.00;;;16.50;92.10;;;;;;6099068;23;20425;-86
2022/05/01 09:41:56;;;;;;;21.47;19.17;;;16.30;90.60;;;;;;6107454;23;20441;-86
2022/05/01 09:44:23;;;;;;;19.80;17.80;;;16.40;91.30;;;;;;6096664;23;20472;-86
2022/05/01 09:46:52;;;;;;;21.50;19.50;;;16.70;91.20;;;;;;6099000;23;20419;-86
2022/05/01 09:49:20;;;;;;;20.87;18.67;;;16.70;90.50;;;;;;6115734;23;20420;-85
2022/05/01 09:51:54;;;;;;;21.67;19.37;;;16.70;90.50;;;;;;6101926;23;20409;-86
2022/05/01 09:54:22;;;;;;;19.67;17.67;;;16.50;90.50;;;;;;6098713;23;20721;-85
2022/05/01 09:56:51;;;;;;;18.13;16.50;;;16.70;90.30;;;;;;6097987;23;20495;-86
2022/05/01 09:59:20;;;;;;;19.87;18.07;;;17.00;90.20;;;;;;6100218;23;20433;-85
2022/05/01 10:02:01;;;;;;;21.67;18.30;;;17.20;89.30;;;;;;6101171;23;20428;-86
2022/05/01 10:04:28;;;;;;;20.17;18.27;;;17.20;88.30;;;;;;6102264;23;20393;-85
2022/05/01 10:06:56;;;;;;;17.67;16.07;;;16.70;87.80;;;;;;6104761;23;20413;-86
2022/05/01 10:09:25;;;;;;;19.53;17.60;;;16.70;89.20;;;;;;6099336;23;20424;-86
2022/05/01 10:11:55;;;;;;;18.97;16.97;;;17.30;87.70;;;;;;6100550;23;20408;-85
2022/05/01 10:14:21;;;;;;;20.23;18.23;;;18.40;84.20;;;;;;6100694;23;20934;-87
2022/05/01 10:16:49;;;;;;;20.30;18.40;;;19.80;81.30;;;;;;6100342;23;20973;-85
2022/05/01 10:19:18;;;;;;;19.73;17.77;;;21.20;75.10;;;;;;6099275;23;20840;-86
2022/05/01 10:21:47;;;;;;;18.17;16.67;;;21.60;71.60;;;;;;6108111;23;20443;-86
2022/05/01 10:24:14;;;;;;;17.03;15.50;;;23.10;68.50;;;;;;6100930;23;20410;-85
2022/05/01 10:26:46;;;;;;;17.57;16.17;;;24.40;64.80;;;;;;6098418;23;20416;-85
2022/05/01 10:29:33;;;;;;;18.40;16.53;;;27.00;57.10;;;;;;6096334;23;20460;-86
2022/05/01 10:32:32;;;;;;;17.60;15.97;;;27.10;53.80;;;;;;6101710;23;20388;-85
2022/05/01 10:35:21;;;;;;;17.10;15.70;;;28.10;50.80;;;;;;6125013;23;20381;-87
2022/05/01 10:38:03;;;;;;;17.17;15.77;;;27.80;49.50;;;;;;6122142;23;20383;-86
2022/05/01 10:40:33;;;;;;;17.03;15.70;;;29.00;48.70;;;;;;6123625;23;20373;-86
2022/05/01 10:43:27;;;;;;;16.67;15.30;;;28.30;48.00;;;;;;6123567;23;20388;-85
2022/05/01 10:45:54;;;;;;;15.63;14.33;;;28.60;48.00;;;;;;6109057;23;20416;-85
2022/05/01 10:48:45;;;;;;;15.33;14.10;;;27.10;46.70;;;;;;6101356;23;20432;-85
2022/05/01 10:51:43;;;;;;;15.97;14.67;;;26.20;49.50;;;;;;6101447;23;20431;-87
2022/05/01 10:54:35;;;;;;;15.60;14.20;;;24.80;50.70;;;;;;6122736;23;20472;-85
2022/05/01 10:57:11;;;;;;;15.30;13.90;;;23.30;52.40;;;;;;6094144;23;20467;-85
2022/05/01 10:59:39;;;;;;;14.07;12.90;;;23.00;53.80;;;;;;6106386;23;20518;-85
2022/05/01 11:02:07;;;;;;;15.80;14.33;;;23.20;54.50;;;;;;6104239;23;21003;-86
2022/05/01 11:04:40;;;;;;;15.77;14.37;;;22.80;53.70;;;;;;6100134;23;20911;-86
2022/05/01 11:07:10;;;;;;;16.00;14.60;;;22.40;55.10;;;;;;6099612;23;20397;-86
2022/05/01 11:09:38;;;;;;;16.87;15.37;;;22.20;53.80;;;;;;6098956;23;20700;-85
2022/05/01 11:12:07;;;;;;;14.77;13.37;;;22.10;54.00;;;;;;6104499;23;20409;-86
2022/05/01 11:14:35;;;;;;;14.00;12.70;;;22.50;53.70;;;;;;6100529;23;20412;-86
2022/05/01 11:17:02;;;;;;;15.33;13.80;;;22.00;53.90;;;;;;6103736;23;20414;-86
2022/05/01 11:19:31;;;;;;;15.20;13.87;;;22.30;55.00;;;;;;6099595;23;20436;-86
2022/05/01 11:21:58;;;;;;;14.20;13.00;;;22.50;55.40;;;;;;6099627;23;20935;-86
2022/05/01 11:24:44;;;;;;;15.43;14.03;;;22.80;56.20;;;;;;6098455;23;20411;-86
2022/05/01 11:27:16;;;;;;;14.77;13.57;;;24.00;54.90;;;;;;6099383;23;20396;-86
2022/05/01 11:30:31;;;;;;;15.07;13.87;;;24.60;52.50;;;;;;6097694;23;20482;-86
2022/05/01 11:33:01;;;;;;;14.10;12.70;;;24.30;51.70;;;;;;6103675;23;20408;-84
2022/05/01 11:35:57;;;;;;;15.13;13.77;;;23.40;53.10;;;;;;6107890;23;20419;-85
2022/05/01 11:38:30;;;;;;;14.93;13.43;;;22.00;55.20;;;;;;6093872;23;20435;-85
2022/05/01 11:41:01;;;;;;;15.97;14.37;;;21.20;57.60;;;;;;6109559;23;20445;-85
2022/05/01 11:43:29;;;;;;;16.00;14.40;;;21.60;57.40;;;;;;6122111;23;20404;-87
2022/05/01 11:45:56;;;;;;;15.37;14.07;;;21.60;56.80;;;;;;6110481;23;20444;-86
2022/05/01 11:48:23;;;;;;;15.50;14.00;;;21.00;58.60;;;;;;6097794;23;20959;-86
2022/05/01 11:50:52;;;;;;;16.00;14.60;;;20.80;59.10;;;;;;6097464;23;20754;-86
2022/05/01 11:53:22;;;;;;;14.10;12.73;;;20.80;59.30;;;;;;6097226;23;20490;-86
2022/05/01 12:04:25;;;;;;;18.13;16.37;;;20.60;59.40;;;;;;6103021;23;20432;-85
2022/05/01 12:06:58;;;;;;;13.97;12.70;;;19.90;60.80;;;;;;6110218;23;20408;-84
2022/05/01 12:09:26;;;;;;;16.20;14.67;;;19.80;62.10;;;;;;6139700;23;20388;-83
2022/05/01 12:11:52;;;;;;;14.80;13.50;;;20.40;61.80;;;;;;6137166;23;20377;-83
2022/05/01 12:14:21;;;;;;;12.90;11.63;;;22.50;58.90;;;;;;6133707;23;20408;-83
2022/05/01 12:16:48;;;;;;;14.63;13.03;;;23.50;55.40;;;;;;6136332;23;20502;-82
2022/05/01 12:19:15;;;;;;;14.90;13.67;;;24.00;54.00;;;;;;6117435;23;20402;-85
2022/05/01 12:21:43;;;;;;;14.83;13.50;;;23.90;53.40;;;;;;6106976;23;20442;-81
2022/05/01 12:24:13;;;;;;;13.60;12.33;;;23.60;53.00;;;;;;6106260;23;20409;-83
2022/05/01 12:26:47;;;;;;;14.47;13.20;;;23.60;53.50;;;;;;6103738;23;20944;-81
2022/05/01 12:29:14;;;;;;;15.40;13.90;;;23.20;53.00;;;;;;6102502;23;20869;-83
2022/05/01 12:32:06;;;;;;;17.20;15.40;;;22.90;53.70;;;;;;6101749;23;20412;-82
2022/05/01 12:34:34;;;;;;;14.73;13.33;;;22.40;53.90;;;;;;6111657;23;20401;-83
2022/05/01 12:37:02;;;;;;;14.40;12.63;;;22.20;54.50;;;;;;6111281;23;20439;-82
2022/05/01 12:39:30;;;;;;;13.60;12.33;;;22.20;54.70;;;;;;6107753;23;20442;-81
2022/05/01 12:45:06;;;;;;;14.90;13.53;;;23.60;53.20;;;;;;6102417;23;20413;-82
2022/05/01 12:47:36;;;;;;;16.13;14.53;;;24.10;51.90;;;;;;6100009;23;20443;-82
2022/05/01 12:50:04;;;;;;;14.10;12.90;;;23.60;51.60;;;;;;6114566;23;20463;-81
2022/05/01 12:52:31;;;;;;;13.73;12.53;;;23.70;51.90;;;;;;6121219;23;20490;-80
2022/05/01 12:55:09;;;;;;;14.93;13.63;;;23.70;51.10;;;;;;6121327;23;20410;-83
2022/05/01 12:57:40;;;;;;;15.00;13.67;;;24.60;50.60;;;;;;6111163;23;20415;-83
2022/05/01 13:00:08;;;;;;;13.93;12.73;;;27.30;48.20;;;;;;6114561;23;20433;-85
2022/05/01 13:02:36;;;;;;;12.87;11.67;;;29.50;45.00;;;;;;6113724;23;20452;-82
2022/05/01 13:05:04;;;;;;;12.40;11.30;;;30.90;42.70;;;;;;6108262;23;20415;-83
2022/05/01 13:07:31;;;;;;;11.83;10.83;;;31.70;41.00;;;;;;6107165;23;20448;-81